sensor_id;sensor_type;location;lat;lon;timestamp;P1;durP1;ratioP1;P2;durP2;ratioP2
74799;SDS011;63326;45.088;7.658;2022-11-15T00:00:55;14.30;;;7.95;;
74799;SDS011;63326;45.088;7.658;2022-11-15T00:03:40;13.57;;;7.18;;
74799;SDS011;63326;45.088;7.658;2022-11-15T00:06:25;18.50;;;8.57;;
74799;SDS011;63326;45.088;7.658;2022-11-15T00:09:10;16.30;;;8.70;;
74799;SDS011;63326;45.088;7.658;2022-11-15T00:11:56;14.32;;;8.10;;
74799;SDS011;63326;45.088;7.658;2022-11-15T00:14:40;13.20;;;8.43;;
74799;SDS011;63326;45.088;7.658;2022-11-15T00:17:26;15.00;;;7.43;;
74799;SDS011;63326;45.088;7.658;2022-11-15T00:20:11;18.38;;;8.30;;
74799;SDS011;63326;45.088;7.658;2022-11-15T00:22:56;20.17;;;7.68;;
74799;SDS011;63326;45.088;7.658;2022-11-15T00:25:41;17.13;;;9.48;;
74799;SDS011;63326;45.088;7.658;2022-11-15T00:28:26;13.45;;;8.40;;
74799;SDS011;63326;45.088;7.658;2022-11-15T00:31:12;13.00;;;8.50;;
74799;SDS011;63326;45.088;7.658;2022-11-15T00:33:58;17.33;;;7.00;;
74799;SDS011;63326;45.088;7.658;2022-11-15T00:36:43;15.07;;;7.32;;
74799;SDS011;63326;45.088;7.658;2022-11-15T00:39:28;14.20;;;8.57;;
74799;SDS011;63326;45.088;7.658;2022-11-15T00:42:13;17.05;;;9.50;;
74799;SDS011;63326;45.088;7.658;2022-11-15T00:44:58;14.38;;;8.23;;
74799;SDS011;63326;45.088;7.658;2022-11-15T00:47:44;16.02;;;9.38;;
74799;SDS011;63326;45.088;7.658;2022-11-15T00:50:30;23.15;;;8.43;;
74799;SDS011;63326;45.088;7.658;2022-11-15T00:53:16;13.52;;;6.78;;
74799;SDS011;63326;45.088;7.658;2022-11-15T00:56:01;15.73;;;7.15;;
74799;SDS011;63326;45.088;7.658;2022-11-15T00:58:47;18.05;;;9.93;;
74799;SDS011;63326;45.088;7.658;2022-11-15T01:01:31;13.90;;;7.57;;
74799;SDS011;63326;45.088;7.658;2022-11-15T01:04:17;17.05;;;8.38;;
74799;SDS011;63326;45.088;7.658;2022-11-15T01:07:02;12.63;;;8.15;;
74799;SDS011;63326;45.088;7.658;2022-11-15T01:09:47;13.75;;;6.93;;
74799;SDS011;63326;45.088;7.658;2022-11-15T01:12:33;14.48;;;7.35;;
74799;SDS011;63326;45.088;7.658;2022-11-15T01:15:18;13.32;;;7.78;;
74799;SDS011;63326;45.088;7.658;2022-11-15T01:18:03;12.65;;;6.75;;
74799;SDS011;63326;45.088;7.658;2022-11-15T01:20:48;12.55;;;6.00;;
74799;SDS011;63326;45.088;7.658;2022-11-15T01:23:33;16.50;;;7.43;;
74799;SDS011;63326;45.088;7.658;2022-11-15T01:26:18;14.60;;;7.55;;
74799;SDS011;63326;45.088;7.658;2022-11-15T01:29:04;13.20;;;8.60;;
74799;SDS011;63326;45.088;7.658;2022-11-15T01:31:49;18.77;;;9.07;;
74799;SDS011;63326;45.088;7.658;2022-11-15T01:34:34;13.68;;;6.57;;
74799;SDS011;63326;45.088;7.658;2022-11-15T01:37:19;22.15;;;9.52;;
74799;SDS011;63326;45.088;7.658;2022-11-15T01:40:05;14.88;;;7.95;;
74799;SDS011;63326;45.088;7.658;2022-11-15T01:42:50;17.10;;;9.15;;
74799;SDS011;63326;45.088;7.658;2022-11-15T01:45:35;16.25;;;7.72;;
74799;SDS011;63326;45.088;7.658;2022-11-15T01:48:20;14.43;;;7.68;;
74799;SDS011;63326;45.088;7.658;2022-11-15T01:51:06;13.55;;;6.43;;
74799;SDS011;63326;45.088;7.658;2022-11-15T01:53:55;14.55;;;6.43;;
74799;SDS011;63326;45.088;7.658;2022-11-15T01:56:46;12.80;;;6.72;;
74799;SDS011;63326;45.088;7.658;2022-11-15T01:59:33;14.02;;;6.90;;
74799;SDS011;63326;45.088;7.658;2022-11-15T02:02:19;13.60;;;7.13;;
74799;SDS011;63326;45.088;7.658;2022-11-15T02:05:04;12.68;;;8.25;;
74799;SDS011;63326;45.088;7.658;2022-11-15T02:07:49;12.18;;;8.00;;
74799;SDS011;63326;45.088;7.658;2022-11-15T02:10:34;17.10;;;9.18;;
74799;SDS011;63326;45.088;7.658;2022-11-15T02:13:19;17.63;;;8.98;;
74799;SDS011;63326;45.088;7.658;2022-11-15T02:16:39;13.82;;;8.77;;
74799;SDS011;63326;45.088;7.658;2022-11-15T02:33:57;14.15;;;7.47;;
74799;SDS011;63326;45.088;7.658;2022-11-15T02:36:54;12.30;;;6.32;;
74799;SDS011;63326;45.088;7.658;2022-11-15T02:39:50;14.65;;;7.28;;
74799;SDS011;63326;45.088;7.658;2022-11-15T02:42:49;10.88;;;6.55;;
74799;SDS011;63326;45.088;7.658;2022-11-15T02:46:01;12.60;;;6.78;;
74799;SDS011;63326;45.088;7.658;2022-11-15T02:48:48;16.98;;;8.10;;
74799;SDS011;63326;45.088;7.658;2022-11-15T02:51:34;12.75;;;6.88;;
74799;SDS011;63326;45.088;7.658;2022-11-15T02:54:24;13.10;;;6.80;;
74799;SDS011;63326;45.088;7.658;2022-11-15T02:57:12;13.98;;;6.97;;
74799;SDS011;63326;45.088;7.658;2022-11-15T03:00:04;12.25;;;7.10;;
74799;SDS011;63326;45.088;7.658;2022-11-15T03:06:22;14.63;;;7.47;;
74799;SDS011;63326;45.088;7.658;2022-11-15T03:09:12;15.85;;;7.05;;
74799;SDS011;63326;45.088;7.658;2022-11-15T03:12:04;10.95;;;5.97;;
74799;SDS011;63326;45.088;7.658;2022-11-15T03:17:48;13.80;;;6.82;;
74799;SDS011;63326;45.088;7.658;2022-11-15T03:20:37;15.88;;;7.03;;
74799;SDS011;63326;45.088;7.658;2022-11-15T03:23:22;12.45;;;6.82;;
74799;SDS011;63326;45.088;7.658;2022-11-15T03:26:08;15.48;;;9.07;;
74799;SDS011;63326;45.088;7.658;2022-11-15T03:29:37;15.75;;;8.00;;
74799;SDS011;63326;45.088;7.658;2022-11-15T03:32:06;13.65;;;8.52;;
74799;SDS011;63326;45.088;7.658;2022-11-15T03:38:00;12.98;;;7.28;;
74799;SDS011;63326;45.088;7.658;2022-11-15T03:41:07;15.80;;;7.82;;
74799;SDS011;63326;45.088;7.658;2022-11-15T03:44:13;17.17;;;8.48;;
74799;SDS011;63326;45.088;7.658;2022-11-15T03:47:09;15.18;;;6.78;;
74799;SDS011;63326;45.088;7.658;2022-11-15T03:50:08;17.60;;;7.63;;
74799;SDS011;63326;45.088;7.658;2022-11-15T03:52:56;11.10;;;7.40;;
74799;SDS011;63326;45.088;7.658;2022-11-15T03:55:42;10.65;;;5.90;;
74799;SDS011;63326;45.088;7.658;2022-11-15T03:58:27;12.13;;;7.13;;
74799;SDS011;63326;45.088;7.658;2022-11-15T04:01:12;14.20;;;7.85;;
74799;SDS011;63326;45.088;7.658;2022-11-15T04:03:57;14.43;;;7.10;;
74799;SDS011;63326;45.088;7.658;2022-11-15T04:06:42;13.95;;;8.23;;
74799;SDS011;63326;45.088;7.658;2022-11-15T04:09:27;9.85;;;5.78;;
74799;SDS011;63326;45.088;7.658;2022-11-15T04:12:12;15.93;;;8.52;;
74799;SDS011;63326;45.088;7.658;2022-11-15T04:15:01;11.75;;;7.60;;
74799;SDS011;63326;45.088;7.658;2022-11-15T04:17:54;11.88;;;6.18;;
74799;SDS011;63326;45.088;7.658;2022-11-15T04:20:40;12.10;;;6.35;;
74799;SDS011;63326;45.088;7.658;2022-11-15T04:23:44;14.57;;;6.75;;
74799;SDS011;63326;45.088;7.658;2022-11-15T04:26:48;12.40;;;7.75;;
74799;SDS011;63326;45.088;7.658;2022-11-15T04:29:34;12.07;;;6.78;;
74799;SDS011;63326;45.088;7.658;2022-11-15T04:32:19;15.13;;;8.05;;
74799;SDS011;63326;45.088;7.658;2022-11-15T04:35:05;13.20;;;6.53;;
74799;SDS011;63326;45.088;7.658;2022-11-15T04:37:50;11.68;;;5.75;;
74799;SDS011;63326;45.088;7.658;2022-11-15T04:40:36;12.15;;;6.95;;
74799;SDS011;63326;45.088;7.658;2022-11-15T04:43:22;13.20;;;7.07;;
74799;SDS011;63326;45.088;7.658;2022-11-15T04:46:07;16.60;;;6.90;;
74799;SDS011;63326;45.088;7.658;2022-11-15T04:48:52;12.13;;;6.05;;
74799;SDS011;63326;45.088;7.658;2022-11-15T04:51:43;11.85;;;7.05;;
74799;SDS011;63326;45.088;7.658;2022-11-15T04:54:28;12.20;;;5.35;;
74799;SDS011;63326;45.088;7.658;2022-11-15T04:57:13;12.80;;;5.72;;
74799;SDS011;63326;45.088;7.658;2022-11-15T04:59:59;12.10;;;6.25;;
74799;SDS011;63326;45.088;7.658;2022-11-15T05:02:44;13.43;;;6.57;;
74799;SDS011;63326;45.088;7.658;2022-11-15T05:05:47;11.30;;;6.35;;
74799;SDS011;63326;45.088;7.658;2022-11-15T05:08:32;15.30;;;8.07;;
74799;SDS011;63326;45.088;7.658;2022-11-15T05:11:18;15.88;;;7.35;;
74799;SDS011;63326;45.088;7.658;2022-11-15T05:14:03;13.93;;;7.32;;
74799;SDS011;63326;45.088;7.658;2022-11-15T05:16:48;13.15;;;6.25;;
74799;SDS011;63326;45.088;7.658;2022-11-15T05:19:33;11.15;;;5.20;;
74799;SDS011;63326;45.088;7.658;2022-11-15T05:22:19;16.05;;;6.55;;
74799;SDS011;63326;45.088;7.658;2022-11-15T05:25:04;17.73;;;9.20;;
74799;SDS011;63326;45.088;7.658;2022-11-15T05:27:50;13.80;;;7.40;;
74799;SDS011;63326;45.088;7.658;2022-11-15T05:30:35;15.35;;;6.35;;
74799;SDS011;63326;45.088;7.658;2022-11-15T05:33:20;10.65;;;6.93;;
74799;SDS011;63326;45.088;7.658;2022-11-15T05:36:13;14.73;;;8.30;;
74799;SDS011;63326;45.088;7.658;2022-11-15T05:39:02;14.13;;;6.95;;
74799;SDS011;63326;45.088;7.658;2022-11-15T05:41:50;12.73;;;6.97;;
74799;SDS011;63326;45.088;7.658;2022-11-15T05:44:36;11.85;;;7.72;;
74799;SDS011;63326;45.088;7.658;2022-11-15T05:47:24;14.35;;;5.50;;
74799;SDS011;63326;45.088;7.658;2022-11-15T05:50:12;13.73;;;8.32;;
74799;SDS011;63326;45.088;7.658;2022-11-15T05:52:59;13.73;;;8.77;;
74799;SDS011;63326;45.088;7.658;2022-11-15T05:55:49;10.70;;;6.03;;
74799;SDS011;63326;45.088;7.658;2022-11-15T05:58:34;13.57;;;6.18;;
74799;SDS011;63326;45.088;7.658;2022-11-15T06:01:20;14.98;;;8.45;;
74799;SDS011;63326;45.088;7.658;2022-11-15T06:04:05;16.98;;;8.07;;
74799;SDS011;63326;45.088;7.658;2022-11-15T06:06:50;14.25;;;6.10;;
74799;SDS011;63326;45.088;7.658;2022-11-15T06:09:36;19.10;;;9.18;;
74799;SDS011;63326;45.088;7.658;2022-11-15T06:12:21;13.77;;;6.63;;
74799;SDS011;63326;45.088;7.658;2022-11-15T06:15:06;13.75;;;7.60;;
74799;SDS011;63326;45.088;7.658;2022-11-15T06:17:52;19.83;;;8.90;;
74799;SDS011;63326;45.088;7.658;2022-11-15T06:20:41;13.23;;;6.53;;
74799;SDS011;63326;45.088;7.658;2022-11-15T06:23:27;15.23;;;8.38;;
74799;SDS011;63326;45.088;7.658;2022-11-15T06:26:13;13.52;;;7.22;;
74799;SDS011;63326;45.088;7.658;2022-11-15T06:28:58;16.88;;;8.75;;
74799;SDS011;63326;45.088;7.658;2022-11-15T06:31:43;13.70;;;6.18;;
74799;SDS011;63326;45.088;7.658;2022-11-15T06:34:29;16.40;;;8.60;;
74799;SDS011;63326;45.088;7.658;2022-11-15T06:37:14;15.20;;;7.63;;
74799;SDS011;63326;45.088;7.658;2022-11-15T06:39:59;19.73;;;10.95;;
74799;SDS011;63326;45.088;7.658;2022-11-15T06:42:44;16.35;;;8.25;;
74799;SDS011;63326;45.088;7.658;2022-11-15T06:45:29;17.42;;;9.20;;
74799;SDS011;63326;45.088;7.658;2022-11-15T06:48:14;19.45;;;9.55;;
74799;SDS011;63326;45.088;7.658;2022-11-15T06:51:00;24.52;;;13.18;;
74799;SDS011;63326;45.088;7.658;2022-11-15T06:53:46;17.15;;;8.45;;
74799;SDS011;63326;45.088;7.658;2022-11-15T06:56:31;25.83;;;11.40;;
74799;SDS011;63326;45.088;7.658;2022-11-15T06:59:16;20.85;;;10.27;;
74799;SDS011;63326;45.088;7.658;2022-11-15T07:02:02;21.75;;;8.57;;
74799;SDS011;63326;45.088;7.658;2022-11-15T07:04:47;16.33;;;9.27;;
74799;SDS011;63326;45.088;7.658;2022-11-15T07:07:32;16.55;;;8.77;;
74799;SDS011;63326;45.088;7.658;2022-11-15T07:10:18;21.95;;;8.93;;
74799;SDS011;63326;45.088;7.658;2022-11-15T07:13:03;16.35;;;8.77;;
74799;SDS011;63326;45.088;7.658;2022-11-15T07:15:48;17.52;;;7.55;;
74799;SDS011;63326;45.088;7.658;2022-11-15T07:18:37;18.35;;;8.73;;
74799;SDS011;63326;45.088;7.658;2022-11-15T07:21:23;14.20;;;7.88;;
74799;SDS011;63326;45.088;7.658;2022-11-15T07:24:11;15.77;;;8.00;;
74799;SDS011;63326;45.088;7.658;2022-11-15T07:26:56;16.20;;;7.70;;
74799;SDS011;63326;45.088;7.658;2022-11-15T07:29:41;19.90;;;8.77;;
74799;SDS011;63326;45.088;7.658;2022-11-15T07:32:26;18.98;;;9.55;;
74799;SDS011;63326;45.088;7.658;2022-11-15T07:35:12;17.95;;;7.68;;
74799;SDS011;63326;45.088;7.658;2022-11-15T07:37:57;15.77;;;6.60;;
74799;SDS011;63326;45.088;7.658;2022-11-15T07:40:46;11.48;;;6.00;;
74799;SDS011;63326;45.088;7.658;2022-11-15T07:43:32;15.63;;;7.28;;
74799;SDS011;63326;45.088;7.658;2022-11-15T07:46:19;16.85;;;10.35;;
74799;SDS011;63326;45.088;7.658;2022-11-15T07:49:04;15.73;;;8.07;;
74799;SDS011;63326;45.088;7.658;2022-11-15T07:51:49;11.35;;;6.55;;
74799;SDS011;63326;45.088;7.658;2022-11-15T07:54:34;14.48;;;6.32;;
74799;SDS011;63326;45.088;7.658;2022-11-15T07:57:19;17.13;;;8.23;;
74799;SDS011;63326;45.088;7.658;2022-11-15T08:00:05;20.13;;;7.03;;
74799;SDS011;63326;45.088;7.658;2022-11-15T08:02:50;14.82;;;6.88;;
74799;SDS011;63326;45.088;7.658;2022-11-15T08:05:37;17.15;;;7.68;;
74799;SDS011;63326;45.088;7.658;2022-11-15T08:08:22;15.38;;;6.75;;
74799;SDS011;63326;45.088;7.658;2022-11-15T08:11:08;16.20;;;8.10;;
74799;SDS011;63326;45.088;7.658;2022-11-15T08:13:53;14.40;;;7.15;;
74799;SDS011;63326;45.088;7.658;2022-11-15T08:16:38;15.30;;;8.10;;
74799;SDS011;63326;45.088;7.658;2022-11-15T08:19:23;14.57;;;6.88;;
74799;SDS011;63326;45.088;7.658;2022-11-15T08:22:09;18.23;;;8.93;;
74799;SDS011;63326;45.088;7.658;2022-11-15T08:24:54;12.40;;;7.13;;
74799;SDS011;63326;45.088;7.658;2022-11-15T08:27:39;11.82;;;6.57;;
74799;SDS011;63326;45.088;7.658;2022-11-15T08:30:24;13.02;;;6.70;;
74799;SDS011;63326;45.088;7.658;2022-11-15T08:33:11;11.43;;;7.43;;
74799;SDS011;63326;45.088;7.658;2022-11-15T08:35:58;15.65;;;8.38;;
74799;SDS011;63326;45.088;7.658;2022-11-15T08:38:44;13.63;;;8.05;;
74799;SDS011;63326;45.088;7.658;2022-11-15T08:41:33;13.40;;;7.85;;
74799;SDS011;63326;45.088;7.658;2022-11-15T08:44:20;18.05;;;8.93;;
74799;SDS011;63326;45.088;7.658;2022-11-15T08:47:05;17.55;;;7.85;;
74799;SDS011;63326;45.088;7.658;2022-11-15T08:49:50;17.10;;;7.97;;
74799;SDS011;63326;45.088;7.658;2022-11-15T08:52:35;20.88;;;6.90;;
74799;SDS011;63326;45.088;7.658;2022-11-15T08:55:20;21.50;;;9.38;;
74799;SDS011;63326;45.088;7.658;2022-11-15T08:58:08;15.98;;;9.45;;
74799;SDS011;63326;45.088;7.658;2022-11-15T09:00:54;15.57;;;9.18;;
74799;SDS011;63326;45.088;7.658;2022-11-15T09:03:39;16.83;;;9.27;;
74799;SDS011;63326;45.088;7.658;2022-11-15T09:06:25;19.80;;;10.57;;
74799;SDS011;63326;45.088;7.658;2022-11-15T09:09:10;17.45;;;8.73;;
74799;SDS011;63326;45.088;7.658;2022-11-15T09:11:55;18.33;;;9.60;;
74799;SDS011;63326;45.088;7.658;2022-11-15T09:14:46;17.10;;;8.48;;
74799;SDS011;63326;45.088;7.658;2022-11-15T09:17:31;14.57;;;8.00;;
74799;SDS011;63326;45.088;7.658;2022-11-15T09:20:16;18.08;;;7.63;;
74799;SDS011;63326;45.088;7.658;2022-11-15T09:23:02;20.48;;;8.75;;
74799;SDS011;63326;45.088;7.658;2022-11-15T09:25:47;19.27;;;8.55;;
74799;SDS011;63326;45.088;7.658;2022-11-15T09:28:33;19.55;;;8.15;;
74799;SDS011;63326;45.088;7.658;2022-11-15T09:31:19;17.70;;;10.13;;
74799;SDS011;63326;45.088;7.658;2022-11-15T09:34:06;15.50;;;9.23;;
74799;SDS011;63326;45.088;7.658;2022-11-15T09:36:51;14.90;;;9.73;;
74799;SDS011;63326;45.088;7.658;2022-11-15T09:39:36;20.10;;;9.88;;
74799;SDS011;63326;45.088;7.658;2022-11-15T09:45:26;20.30;;;7.78;;
74799;SDS011;63326;45.088;7.658;2022-11-15T09:48:40;17.08;;;9.00;;
74799;SDS011;63326;45.088;7.658;2022-11-15T09:54:35;16.45;;;8.93;;
74799;SDS011;63326;45.088;7.658;2022-11-15T09:57:24;13.77;;;7.75;;
74799;SDS011;63326;45.088;7.658;2022-11-15T09:59:59;19.05;;;9.98;;
74799;SDS011;63326;45.088;7.658;2022-11-15T10:05:20;15.60;;;9.05;;
74799;SDS011;63326;45.088;7.658;2022-11-15T10:08:01;19.10;;;10.02;;
74799;SDS011;63326;45.088;7.658;2022-11-15T10:10:37;19.85;;;10.40;;
74799;SDS011;63326;45.088;7.658;2022-11-15T10:13:08;13.48;;;7.68;;
74799;SDS011;63326;45.088;7.658;2022-11-15T10:15:48;19.52;;;10.90;;
74799;SDS011;63326;45.088;7.658;2022-11-15T10:20:53;17.85;;;9.07;;
74799;SDS011;63326;45.088;7.658;2022-11-15T10:23:22;21.63;;;11.82;;
74799;SDS011;63326;45.088;7.658;2022-11-15T10:25:55;21.60;;;10.90;;
74799;SDS011;63326;45.088;7.658;2022-11-15T10:28:32;17.17;;;8.45;;
74799;SDS011;63326;45.088;7.658;2022-11-15T10:30:59;20.13;;;10.85;;
74799;SDS011;63326;45.088;7.658;2022-11-15T10:49:26;18.45;;;9.63;;
74799;SDS011;63326;45.088;7.658;2022-11-15T10:57:13;18.50;;;10.43;;
74799;SDS011;63326;45.088;7.658;2022-11-15T10:59:48;20.90;;;10.65;;
74799;SDS011;63326;45.088;7.658;2022-11-15T11:02:29;20.55;;;11.18;;
74799;SDS011;63326;45.088;7.658;2022-11-15T11:04:58;16.63;;;9.40;;
74799;SDS011;63326;45.088;7.658;2022-11-15T11:07:28;20.13;;;10.80;;
74799;SDS011;63326;45.088;7.658;2022-11-15T11:13:40;19.30;;;10.00;;
74799;SDS011;63326;45.088;7.658;2022-11-15T11:16:14;22.40;;;11.63;;
74799;SDS011;63326;45.088;7.658;2022-11-15T11:21:26;22.20;;;10.73;;
74799;SDS011;63326;45.088;7.658;2022-11-15T11:30:09;20.27;;;10.52;;
74799;SDS011;63326;45.088;7.658;2022-11-15T11:32:50;19.35;;;12.20;;
74799;SDS011;63326;45.088;7.658;2022-11-15T11:41:09;20.02;;;11.90;;
74799;SDS011;63326;45.088;7.658;2022-11-15T11:48:50;18.05;;;10.95;;
74799;SDS011;63326;45.088;7.658;2022-11-15T11:51:28;25.63;;;12.40;;
74799;SDS011;63326;45.088;7.658;2022-11-15T11:54:03;29.02;;;12.70;;
74799;SDS011;63326;45.088;7.658;2022-11-15T11:56:33;19.20;;;11.30;;
74799;SDS011;63326;45.088;7.658;2022-11-15T11:59:12;19.35;;;11.40;;
74799;SDS011;63326;45.088;7.658;2022-11-15T12:01:45;23.10;;;12.85;;
74799;SDS011;63326;45.088;7.658;2022-11-15T12:04:27;33.33;;;13.65;;
74799;SDS011;63326;45.088;7.658;2022-11-15T12:07:01;23.77;;;11.35;;
74799;SDS011;63326;45.088;7.658;2022-11-15T12:09:36;28.48;;;15.40;;
74799;SDS011;63326;45.088;7.658;2022-11-15T12:17:36;16.88;;;10.35;;
74799;SDS011;63326;45.088;7.658;2022-11-15T12:20:04;19.58;;;9.85;;
74799;SDS011;63326;45.088;7.658;2022-11-15T12:22:42;20.02;;;11.38;;
74799;SDS011;63326;45.088;7.658;2022-11-15T12:25:27;19.65;;;10.95;;
74799;SDS011;63326;45.088;7.658;2022-11-15T12:27:59;21.30;;;12.30;;
74799;SDS011;63326;45.088;7.658;2022-11-15T12:30:31;24.73;;;10.52;;
74799;SDS011;63326;45.088;7.658;2022-11-15T12:33:57;20.02;;;11.82;;
74799;SDS011;63326;45.088;7.658;2022-11-15T12:38:53;24.77;;;12.63;;
74799;SDS011;63326;45.088;7.658;2022-11-15T12:41:28;22.75;;;11.60;;
74799;SDS011;63326;45.088;7.658;2022-11-15T12:43:56;26.48;;;12.65;;
74799;SDS011;63326;45.088;7.658;2022-11-15T13:25:19;21.85;;;7.28;;
74799;SDS011;63326;45.088;7.658;2022-11-15T13:27:51;17.08;;;8.15;;
74799;SDS011;63326;45.088;7.658;2022-11-15T13:30:24;17.80;;;9.15;;
74799;SDS011;63326;45.088;7.658;2022-11-15T13:32:52;20.75;;;6.97;;
74799;SDS011;63326;45.088;7.658;2022-11-15T13:35:26;21.05;;;7.60;;
74799;SDS011;63326;45.088;7.658;2022-11-15T13:37:54;16.30;;;7.35;;
74799;SDS011;63326;45.088;7.658;2022-11-15T13:40:45;19.60;;;8.25;;
74799;SDS011;63326;45.088;7.658;2022-11-15T13:48:38;20.38;;;8.40;;
74799;SDS011;63326;45.088;7.658;2022-11-15T13:51:25;23.02;;;9.23;;
74799;SDS011;63326;45.088;7.658;2022-11-15T13:56:44;20.13;;;8.75;;
74799;SDS011;63326;45.088;7.658;2022-11-15T13:59:17;17.15;;;8.02;;
74799;SDS011;63326;45.088;7.658;2022-11-15T14:01:45;20.77;;;8.45;;
74799;SDS011;63326;45.088;7.658;2022-11-15T14:04:13;23.70;;;10.05;;
74799;SDS011;63326;45.088;7.658;2022-11-15T14:06:45;20.83;;;9.88;;
74799;SDS011;63326;45.088;7.658;2022-11-15T14:09:18;17.38;;;9.05;;
74799;SDS011;63326;45.088;7.658;2022-11-15T14:11:56;18.33;;;8.45;;
74799;SDS011;63326;45.088;7.658;2022-11-15T14:14:24;23.50;;;11.63;;
74799;SDS011;63326;45.088;7.658;2022-11-15T14:16:52;19.50;;;8.68;;
74799;SDS011;63326;45.088;7.658;2022-11-15T14:24:40;19.40;;;8.70;;
74799;SDS011;63326;45.088;7.658;2022-11-15T14:30:15;21.70;;;8.63;;
74799;SDS011;63326;45.088;7.658;2022-11-15T14:32:49;17.50;;;8.75;;
74799;SDS011;63326;45.088;7.658;2022-11-15T14:35:18;24.08;;;10.10;;
74799;SDS011;63326;45.088;7.658;2022-11-15T14:37:46;17.55;;;8.02;;
74799;SDS011;63326;45.088;7.658;2022-11-15T14:40:14;25.42;;;10.60;;
74799;SDS011;63326;45.088;7.658;2022-11-15T14:42:43;17.75;;;9.35;;
74799;SDS011;63326;45.088;7.658;2022-11-15T14:45:12;20.20;;;9.80;;
74799;SDS011;63326;45.088;7.658;2022-11-15T14:47:40;21.63;;;10.25;;
74799;SDS011;63326;45.088;7.658;2022-11-15T14:50:18;17.30;;;10.23;;
74799;SDS011;63326;45.088;7.658;2022-11-15T14:52:45;18.00;;;9.65;;
74799;SDS011;63326;45.088;7.658;2022-11-15T14:55:20;16.45;;;8.73;;
74799;SDS011;63326;45.088;7.658;2022-11-15T14:57:49;18.83;;;9.85;;
74799;SDS011;63326;45.088;7.658;2022-11-15T15:00:16;19.25;;;8.48;;
74799;SDS011;63326;45.088;7.658;2022-11-15T15:02:43;18.45;;;8.63;;
74799;SDS011;63326;45.088;7.658;2022-11-15T15:07:45;18.60;;;9.20;;
74799;SDS011;63326;45.088;7.658;2022-11-15T15:10:12;20.45;;;8.45;;
74799;SDS011;63326;45.088;7.658;2022-11-15T15:12:59;21.23;;;10.13;;
74799;SDS011;63326;45.088;7.658;2022-11-15T15:15:29;16.08;;;7.90;;
74799;SDS011;63326;45.088;7.658;2022-11-15T15:17:58;18.08;;;9.23;;
74799;SDS011;63326;45.088;7.658;2022-11-15T15:20:25;16.80;;;8.23;;
74799;SDS011;63326;45.088;7.658;2022-11-15T15:22:51;18.55;;;8.27;;
74799;SDS011;63326;45.088;7.658;2022-11-15T15:25:26;18.33;;;7.78;;
74799;SDS011;63326;45.088;7.658;2022-11-15T15:27:54;15.98;;;8.98;;
74799;SDS011;63326;45.088;7.658;2022-11-15T15:30:21;17.08;;;8.18;;
74799;SDS011;63326;45.088;7.658;2022-11-15T15:32:49;14.40;;;7.57;;
74799;SDS011;63326;45.088;7.658;2022-11-15T15:35:16;17.15;;;7.20;;
74799;SDS011;63326;45.088;7.658;2022-11-15T15:37:43;16.17;;;8.20;;
74799;SDS011;63326;45.088;7.658;2022-11-15T15:40:20;19.02;;;9.85;;
74799;SDS011;63326;45.088;7.658;2022-11-15T15:42:48;18.90;;;7.90;;
74799;SDS011;63326;45.088;7.658;2022-11-15T15:45:16;17.50;;;8.65;;
74799;SDS011;63326;45.088;7.658;2022-11-15T15:47:43;15.32;;;7.28;;
74799;SDS011;63326;45.088;7.658;2022-11-15T15:52:46;17.33;;;7.93;;
74799;SDS011;63326;45.088;7.658;2022-11-15T15:55:12;17.00;;;8.85;;
74799;SDS011;63326;45.088;7.658;2022-11-15T15:57:39;20.10;;;8.35;;
74799;SDS011;63326;45.088;7.658;2022-11-15T16:00:05;20.42;;;9.13;;
74799;SDS011;63326;45.088;7.658;2022-11-15T16:02:37;15.20;;;7.70;;
74799;SDS011;63326;45.088;7.658;2022-11-15T16:05:06;16.08;;;8.73;;
74799;SDS011;63326;45.088;7.658;2022-11-15T16:07:34;20.23;;;9.00;;
74799;SDS011;63326;45.088;7.658;2022-11-15T16:10:01;17.67;;;8.35;;
74799;SDS011;63326;45.088;7.658;2022-11-15T16:14:59;14.35;;;6.45;;
74799;SDS011;63326;45.088;7.658;2022-11-15T16:17:28;24.00;;;9.60;;
74799;SDS011;63326;45.088;7.658;2022-11-15T16:19:59;18.30;;;8.60;;
74799;SDS011;63326;45.088;7.658;2022-11-15T16:22:26;21.50;;;10.75;;
74799;SDS011;63326;45.088;7.658;2022-11-15T16:24:55;19.08;;;8.55;;
74799;SDS011;63326;45.088;7.658;2022-11-15T16:27:22;14.57;;;8.15;;
74799;SDS011;63326;45.088;7.658;2022-11-15T16:29:49;21.73;;;8.23;;
74799;SDS011;63326;45.088;7.658;2022-11-15T16:32:15;19.83;;;9.82;;
74799;SDS011;63326;45.088;7.658;2022-11-15T16:34:42;28.30;;;12.50;;
74799;SDS011;63326;45.088;7.658;2022-11-15T16:37:23;18.38;;;9.52;;
74799;SDS011;63326;45.088;7.658;2022-11-15T16:39:50;18.50;;;8.75;;
74799;SDS011;63326;45.088;7.658;2022-11-15T16:42:18;20.23;;;8.75;;
74799;SDS011;63326;45.088;7.658;2022-11-15T16:44:45;16.40;;;7.18;;
74799;SDS011;63326;45.088;7.658;2022-11-15T16:47:14;19.30;;;10.27;;
74799;SDS011;63326;45.088;7.658;2022-11-15T16:49:43;18.40;;;8.98;;
74799;SDS011;63326;45.088;7.658;2022-11-15T16:52:10;21.13;;;10.48;;
74799;SDS011;63326;45.088;7.658;2022-11-15T16:54:37;18.90;;;9.32;;
74799;SDS011;63326;45.088;7.658;2022-11-15T16:57:03;24.42;;;9.18;;
74799;SDS011;63326;45.088;7.658;2022-11-15T16:59:30;20.27;;;10.55;;
74799;SDS011;63326;45.088;7.658;2022-11-15T17:02:04;21.80;;;10.00;;
74799;SDS011;63326;45.088;7.658;2022-11-15T17:04:35;20.27;;;9.38;;
74799;SDS011;63326;45.088;7.658;2022-11-15T17:07:01;22.02;;;9.25;;
74799;SDS011;63326;45.088;7.658;2022-11-15T17:09:28;16.80;;;8.63;;
74799;SDS011;63326;45.088;7.658;2022-11-15T17:11:54;17.45;;;7.72;;
74799;SDS011;63326;45.088;7.658;2022-11-15T17:14:21;24.50;;;9.43;;
74799;SDS011;63326;45.088;7.658;2022-11-15T17:16:48;22.02;;;11.07;;
74799;SDS011;63326;45.088;7.658;2022-11-15T17:19:18;25.15;;;9.05;;
74799;SDS011;63326;45.088;7.658;2022-11-15T17:21:46;23.58;;;11.45;;
74799;SDS011;63326;45.088;7.658;2022-11-15T17:26:41;16.67;;;7.50;;
74799;SDS011;63326;45.088;7.658;2022-11-15T17:29:08;19.05;;;9.10;;
74799;SDS011;63326;45.088;7.658;2022-11-15T17:31:35;14.98;;;7.13;;
74799;SDS011;63326;45.088;7.658;2022-11-15T17:34:02;20.42;;;8.45;;
74799;SDS011;63326;45.088;7.658;2022-11-15T17:36:29;23.15;;;10.30;;
74799;SDS011;63326;45.088;7.658;2022-11-15T17:38:56;20.88;;;10.45;;
74799;SDS011;63326;45.088;7.658;2022-11-15T17:41:25;17.55;;;8.88;;
74799;SDS011;63326;45.088;7.658;2022-11-15T17:43:52;14.45;;;7.97;;
74799;SDS011;63326;45.088;7.658;2022-11-15T17:46:19;21.25;;;9.15;;
74799;SDS011;63326;45.088;7.658;2022-11-15T17:48:46;24.60;;;11.05;;
74799;SDS011;63326;45.088;7.658;2022-11-15T17:51:14;20.25;;;10.68;;
74799;SDS011;63326;45.088;7.658;2022-11-15T17:53:43;24.70;;;9.75;;
74799;SDS011;63326;45.088;7.658;2022-11-15T17:56:12;21.30;;;11.27;;
74799;SDS011;63326;45.088;7.658;2022-11-15T17:58:40;19.98;;;10.18;;
74799;SDS011;63326;45.088;7.658;2022-11-15T18:01:07;19.33;;;9.48;;
74799;SDS011;63326;45.088;7.658;2022-11-15T18:03:37;20.67;;;11.10;;
74799;SDS011;63326;45.088;7.658;2022-11-15T18:06:05;18.75;;;9.80;;
74799;SDS011;63326;45.088;7.658;2022-11-15T18:08:34;20.35;;;10.05;;
74799;SDS011;63326;45.088;7.658;2022-11-15T18:11:06;21.45;;;10.50;;
74799;SDS011;63326;45.088;7.658;2022-11-15T18:13:35;22.80;;;12.30;;
74799;SDS011;63326;45.088;7.658;2022-11-15T18:16:03;22.25;;;9.85;;
74799;SDS011;63326;45.088;7.658;2022-11-15T18:18:30;21.05;;;11.43;;
74799;SDS011;63326;45.088;7.658;2022-11-15T18:21:12;24.48;;;12.98;;